Time;durP1;ratioP1;P1;durP2;ratioP2;P2;SDS_P1;SDS_P2;PMS_P1;PMS_P2;Temp;Humidity;BMP_temperature;BMP_pressure;BME280_temperature;BME280_humidity;BME280_pressure;Samples;Min_cycle;Max_cycle;Signal;HPM_P1;HPM_P2
2022/06/28 00:00:09;;;;;;;;;16.50;15.00;;;;;20.79;78.32;99682.16;6284359;20;2817947;-56
2022/06/28 00:02:38;;;;;;;;;18.00;18.00;;;;;20.57;79.42;99669.03;6285950;20;2838782;-56
2022/06/28 00:05:09;;;;;;;;;18.00;18.00;;;;;20.66;78.43;99664.50;6284754;20;2828408;-56
2022/06/28 00:07:39;;;;;;;;;18.00;18.00;;;;;20.72;79.18;99667.47;6281696;20;2837825;-55
2022/06/28 00:10:11;;;;;;;;;19.00;19.00;;;;;20.93;77.95;99668.94;6287847;20;3575264;-57
2022/06/28 00:12:41;;;;;;;;;20.33;19.33;;;;;20.65;78.72;99676.44;6284060;20;3555443;-57
2022/06/28 00:18:01;;;;;;;;;18.33;18.33;;;;;20.38;79.79;99678.25;6283305;20;2487881;-56
2022/06/28 00:20:30;;;;;;;;;17.00;17.00;;;;;20.70;78.65;99683.13;6317752;20;3586678;-56
2022/06/28 00:22:58;;;;;;;;;16.50;16.50;;;;;20.53;79.29;99681.25;6283711;20;2827360;-55
2022/06/28 00:25:27;;;;;;;;;22.50;20.00;;;;;20.45;79.56;99684.75;6286246;20;2837825;-56
2022/06/28 00:27:56;;;;;;;;;19.00;19.00;;;;;20.78;77.74;99696.81;6286447;20;3562877;-54
2022/06/28 00:30:24;;;;;;;;;19.00;17.33;;;;;21.14;75.98;99688.50;6283784;20;3567982;-56
2022/06/28 00:32:53;;;;;;;;;18.00;18.00;;;;;21.12;75.92;99682.38;6284074;20;3558680;-57
2022/06/28 00:35:22;;;;;;;;;19.33;19.33;;;;;20.79;77.99;99693.06;6318711;20;3579467;-56
2022/06/28 00:37:51;;;;;;;;;21.00;20.67;;;;;20.74;78.95;99681.78;6287059;20;3591900;-56
2022/06/28 00:40:20;;;;;;;;;21.00;18.00;;;;;20.94;78.08;99681.56;6281615;20;2829417;-53
2022/06/28 00:42:49;;;;;;;;;20.67;20.67;;;;;20.83;78.64;99675.38;6285789;20;3562893;-53
2022/06/28 00:45:19;;;;;;;;;20.00;19.50;;;;;20.67;79.35;99675.25;6279904;20;2842029;-54
2022/06/28 00:47:49;;;;;;;;;21.33;21.00;;;;;20.30;81.35;99675.41;6284053;20;2848401;-54
2022/06/28 00:50:19;;;;;;;;;21.00;19.67;;;;;20.74;77.41;99687.22;6315780;20;3572140;-53
2022/06/28 00:53:11;;;;;;;;;19.67;17.33;;;;;20.41;79.23;99693.44;6287203;20;3561681;-53
2022/06/28 00:55:41;;;;;;;;;20.33;20.00;;;;;20.41;79.56;99691.56;6318732;20;3581624;-54
2022/06/28 00:58:11;;;;;;;;;21.00;17.00;;;;;20.01;80.94;99694.75;6283706;20;3564813;-53
2022/06/28 01:00:48;;;;;;;;;21.00;19.50;;;;;20.01;80.25;99689.28;6282670;20;2833701;-54
2022/06/28 01:03:23;;;;;;;;;15.67;15.67;;;;;20.20;79.52;99682.84;6286855;20;3554550;-52
2022/06/28 01:05:53;;;;;;;;;20.33;18.00;;;;;19.90;80.02;99693.97;6317154;20;3557501;-55
2022/06/28 01:08:22;;;;;;;;;15.50;15.50;;;;;20.05;79.63;99694.28;6279131;20;2822169;-54
2022/06/28 01:10:50;;;;;;;;;15.50;15.50;;;;;19.83;80.62;99694.75;6285040;20;2483611;-52
2022/06/28 01:13:18;;;;;;;;;18.00;18.00;;;;;19.74;81.91;99691.91;6283484;20;2823697;-53
2022/06/28 01:15:47;;;;;;;;;18.33;18.33;;;;;19.67;82.00;99689.97;6284990;20;3564902;-55
2022/06/28 01:18:17;;;;;;;;;22.00;21.67;;;;;19.92;81.37;99689.22;6282748;20;3585635;-56
2022/06/28 01:20:46;;;;;;;;;20.33;20.33;;;;;20.03;80.31;99685.41;6281844;20;3570200;-52
2022/06/28 01:23:19;;;;;;;;;19.33;19.33;;;;;20.00;80.64;99695.78;6282903;20;2844176;-52
2022/06/28 01:25:48;;;;;;;;;21.00;19.00;;;;;19.94;80.94;99697.25;6313210;20;2836712;-55
2022/06/28 01:28:18;;;;;;;;;18.33;18.33;;;;;20.31;79.29;99694.38;6312134;20;2835746;-53
2022/06/28 01:30:49;;;;;;;;;24.33;23.33;;;;;20.16;80.88;99701.38;6315124;20;3577317;-55
2022/06/28 01:33:18;;;;;;;;;20.00;17.00;;;;;20.10;81.39;99702.88;6283885;20;2833685;-55
2022/06/28 01:35:47;;;;;;;;;21.67;20.67;;;;;19.87;81.16;99696.16;6283187;20;2844053;-55
2022/06/28 01:38:16;;;;;;;;;22.67;21.33;;;;;20.18;79.62;99694.75;6317397;20;3590375;-56
2022/06/28 01:40:46;;;;;;;;;19.00;17.00;;;;;19.53;82.25;99694.88;6278402;20;2831548;-55
2022/06/28 01:43:15;;;;;;;;;17.50;17.50;;;;;19.25;84.26;99690.47;6283609;20;2824265;-55
2022/06/28 01:45:44;;;;;;;;;18.50;18.50;;;;;19.46;82.38;99680.16;6280961;20;2828419;-56
2022/06/28 01:48:11;;;;;;;;;14.50;14.50;;;;;19.80;80.70;99689.59;6282177;20;2492051;-55
2022/06/28 01:50:40;;;;;;;;;20.67;20.67;;;;;19.65;81.68;99681.06;6282100;20;2833585;-54
2022/06/28 01:53:10;;;;;;;;;22.00;20.33;;;;;19.62;82.71;99676.78;6313957;20;2842990;-56
2022/06/28 01:55:39;;;;;;;;;22.00;19.00;;;;;19.60;82.03;99683.38;6315076;20;3580989;-56
2022/06/28 01:58:09;;;;;;;;;23.00;20.00;;;;;19.58;82.96;99683.53;6282377;20;3585733;-54
2022/06/28 02:00:39;;;;;;;;;21.00;19.50;;;;;19.58;83.37;99679.94;6277172;20;2838884;-52
2022/06/28 02:03:08;;;;;;;;;17.00;17.00;;;;;19.74;81.79;99674.72;6282612;20;2828380;-54
2022/06/28 02:05:36;;;;;;;;;21.00;20.00;;;;;19.63;82.79;99672.19;6285487;20;3585692;-53
2022/06/28 02:08:06;;;;;;;;;21.00;19.67;;;;;19.44;83.66;99673.16;6283066;20;3566019;-55
2022/06/28 02:10:34;;;;;;;;;22.33;19.67;;;;;19.57;82.73;99678.25;6284155;20;3580476;-56
2022/06/28 02:13:03;;;;;;;;;18.67;17.67;;;;;19.73;81.67;99678.47;6280880;20;3559629;-56
2022/06/28 02:15:32;;;;;;;;;21.50;19.50;;;;;20.03;80.56;99681.81;6277661;20;2840874;-54
2022/06/28 02:18:00;;;;;;;;;21.00;19.50;;;;;20.18;80.19;99678.41;6277313;20;2832592;-55
2022/06/28 02:20:29;;;;;;;;;20.50;17.00;;;;;19.72;82.55;99676.72;6274980;20;2827507;-56
2022/06/28 02:22:58;;;;;;;;;17.00;17.00;;;;;19.59;83.28;99681.66;6276797;20;2833581;-55
2022/06/28 02:25:27;;;;;;;;;22.00;19.33;;;;;19.56;83.70;99695.59;6279048;20;3575356;-55
2022/06/28 02:27:55;;;;;;;;;22.00;19.50;;;;;19.44;84.47;99693.06;6277828;20;2820145;-48
2022/06/28 02:30:24;;;;;;;;;22.00;22.00;;;;;19.66;83.44;99693.66;6281114;20;2836827;-48
2022/06/28 02:32:53;;;;;;;;;18.00;18.00;;;;;19.85;82.29;99685.41;6279448;20;2827514;-48
2022/06/28 02:40:56;;;;;;;;;22.00;21.00;;;;;19.72;81.60;99696.69;6279379;20;3576306;-51
2022/06/28 02:43:25;;;;;;;;;20.00;19.67;;;;;19.80;81.48;99695.91;6275314;20;3572136;-51
2022/06/28 02:45:54;;;;;;;;;17.67;17.67;;;;;19.47;82.09;99698.22;6282468;20;3575751;-50
2022/06/28 02:48:22;;;;;;;;;18.00;18.00;;;;;19.55;82.25;99699.31;6278824;20;2831519;-49
2022/06/28 02:50:51;;;;;;;;;17.00;17.00;;;;;19.88;81.21;99690.56;6278771;20;2828466;-51
2022/06/28 02:53:20;;;;;;;;;16.00;16.00;;;;;19.83;80.39;99694.75;6280619;20;2829418;-51
2022/06/28 02:55:48;;;;;;;;;23.33;19.00;;;;;19.80;80.80;99690.47;6283982;20;3569113;-50
2022/06/28 02:58:18;;;;;;;;;24.33;19.67;;;;;19.65;81.71;99691.97;6279928;20;2849281;-50
2022/06/28 03:00:46;;;;;;;;;19.00;19.00;;;;;19.79;81.66;99686.00;6312297;20;3568985;-52
2022/06/28 03:03:16;;;;;;;;;19.67;18.00;;;;;19.69;81.66;99679.75;6282206;20;3563988;-51
2022/06/28 03:05:44;;;;;;;;;21.00;18.00;;;;;19.36;83.00;99684.81;6313079;20;3571088;-50
2022/06/28 03:08:13;;;;;;;;;24.00;20.33;;;;;19.21;84.05;99684.44;6281297;20;3578474;-51
2022/06/28 03:10:43;;;;;;;;;22.00;22.00;;;;;18.98;84.79;99673.06;6281318;20;2833659;-52
2022/06/28 03:13:12;;;;;;;;;23.33;20.67;;;;;18.81;85.81;99682.00;6317451;20;3571184;-52
2022/06/28 03:15:41;;;;;;;;;20.67;20.67;;;;;19.32;83.02;99686.09;6288447;20;3591882;-52
2022/06/28 03:18:09;;;;;;;;;17.67;17.67;;;;;19.11;83.79;99690.94;6289567;20;3566892;-49
2022/06/28 03:20:38;;;;;;;;;20.00;19.00;;;;;19.00;84.28;99690.09;6317016;20;3582608;-51
2022/06/28 03:23:07;;;;;;;;;22.33;19.00;;;;;19.58;82.11;99704.47;6288199;20;3581641;-55
2022/06/28 03:25:40;;;;;;;;;21.50;20.50;;;;;19.32;82.01;99697.00;6284909;20;2845156;-54
2022/06/28 03:28:09;;;;;;;;;19.67;17.67;;;;;19.20;83.07;99698.22;6289545;20;3566922;-51
2022/06/28 03:30:37;;;;;;;;;17.50;17.50;;;;;19.28;82.61;99701.03;6283698;20;2825401;-50
2022/06/28 03:33:06;;;;;;;;;20.50;19.00;;;;;19.72;80.53;99703.97;6286647;20;2839025;-52
2022/06/28 03:35:35;;;;;;;;;18.00;18.00;;;;;19.77;80.01;99706.25;6282276;20;2827366;-52
2022/06/28 03:38:03;;;;;;;;;18.33;18.33;;;;;20.10;78.95;99702.00;6289108;20;3562788;-52
2022/06/28 03:40:32;;;;;;;;;22.33;20.00;;;;;20.34;78.10;99704.94;6316181;20;3571252;-52
2022/06/28 03:43:01;;;;;;;;;17.67;17.67;;;;;20.02;80.21;99712.84;6288435;20;3561699;-52
2022/06/28 03:45:29;;;;;;;;;20.50;18.00;;;;;20.32;77.91;99725.22;6283227;20;2833591;-50
2022/06/28 03:47:58;;;;;;;;;19.50;19.50;;;;;20.33;79.51;99727.78;6281306;20;2842015;-52
2022/06/28 03:50:27;;;;;;;;;18.33;17.00;;;;;20.65;77.61;99731.84;6282163;20;3562928;-55
2022/06/28 03:52:55;;;;;;;;;16.00;16.00;;;;;20.94;75.55;99750.66;6304408;20;2819092;-51
2022/06/28 03:55:24;;;;;;;;;18.00;17.00;;;;;21.02;74.63;99758.06;6288819;20;3570232;-49
2022/06/28 03:57:53;;;;;;;;;17.00;15.67;;;;;20.94;75.40;99760.72;6283121;20;3555521;-51
2022/06/28 04:00:22;;;;;;;;;16.00;16.00;;;;;20.95;74.76;99774.19;6285658;20;2828542;-53
2022/06/28 04:02:51;;;;;;;;;17.00;17.00;;;;;21.05;75.28;99779.56;6283438;20;2835664;-53
2022/06/28 04:05:20;;;;;;;;;17.00;15.00;;;;;21.25;74.31;99774.78;6285600;20;3549204;-53
2022/06/28 04:07:48;;;;;;;;;18.50;16.50;;;;;21.21;74.65;99793.34;6283058;20;2828377;-50
2022/06/28 04:10:17;;;;;;;;;19.00;16.00;;;;;21.19;76.34;99800.81;6284016;20;2831542;-53
2022/06/28 04:12:46;;;;;;;;;16.50;14.00;;;;;21.37;76.51;99805.38;6282840;20;2819131;-52
2022/06/28 04:15:14;;;;;;;;;15.00;15.00;;;;;21.62;72.96;99820.94;6282976;20;2806536;-52
2022/06/28 04:17:44;;;;;;;;;13.00;13.00;;;;;21.87;71.82;99812.84;6281851;20;3520242;-53
2022/06/28 04:20:13;;;;;;;;;17.00;14.00;;;;;21.79;72.12;99813.69;6287154;20;2489846;-49
2022/06/28 04:22:41;;;;;;;;;17.00;15.67;;;;;22.22;70.33;99820.06;6313643;20;2483713;-52
2022/06/28 04:25:10;;;;;;;;;13.67;13.67;;;;;22.24;69.86;99814.41;6314572;20;3529381;-51
2022/06/28 04:27:39;;;;;;;;;18.67;12.67;;;;;22.39;69.71;99812.72;6283477;20;2492055;-52
2022/06/28 04:30:08;;;;;;;;;17.00;13.00;;;;;22.29;69.28;99820.22;6315770;20;2485672;-51
2022/06/28 04:32:37;;;;;;;;;12.67;12.67;;;;;22.53;68.80;99820.28;6307794;20;3524353;-50
2022/06/28 04:35:07;;;;;;;;;14.33;14.00;;;;;22.55;68.51;99818.22;6281022;20;2491969;-50
2022/06/28 04:37:36;;;;;;;;;16.00;14.33;;;;;22.72;68.22;99827.34;6307195;20;2483647;-49
2022/06/28 04:40:05;;;;;;;;;15.00;13.67;;;;;22.73;68.14;99809.88;6309661;20;2483697;-51
2022/06/28 04:42:36;;;;;;;;;14.00;12.67;;;;;22.89;68.02;99811.75;6314042;20;2487744;-50
2022/06/28 04:45:06;;;;;;;;;14.33;14.33;;;;;22.85;68.85;99815.84;6314564;20;3517021;-51
2022/06/28 04:47:36;;;;;;;;;15.00;15.00;;;;;22.87;69.38;99804.75;6280071;20;3544012;-53
2022/06/28 04:50:05;;;;;;;;;17.00;17.00;;;;;23.16;68.30;99804.25;6284257;20;2837808;-52
2022/06/28 04:52:34;;;;;;;;;15.50;15.50;;;;;23.15;68.43;99813.50;6282703;20;2817991;-53
2022/06/28 04:55:04;;;;;;;;;19.00;17.33;;;;;23.19;68.46;99814.84;6292701;20;3570161;-51
2022/06/28 04:57:33;;;;;;;;;16.00;14.33;;;;;23.24;67.63;99817.94;6284693;20;2483609;-50
2022/06/28 05:00:03;;;;;;;;;15.33;14.67;;;;;23.30;67.85;99820.00;6319467;20;2485671;-52
2022/06/28 05:02:31;;;;;;;;;13.33;13.33;;;;;23.18;68.73;99827.69;6315262;20;2487753;-49
2022/06/28 05:05:00;;;;;;;;;16.00;15.00;;;;;23.26;69.31;99835.06;6319702;20;2483659;-51
2022/06/28 05:07:29;;;;;;;;;12.00;12.00;;;;;23.20;68.70;99828.38;6318394;20;2491906;-49
2022/06/28 05:09:58;;;;;;;;;15.67;15.67;;;;;23.59;67.25;99840.47;6320284;20;2483605;-52
2022/06/28 05:12:27;;;;;;;;;12.00;12.00;;;;;23.86;65.92;99845.59;6321964;20;3515902;-51
2022/06/28 05:14:55;;;;;;;;;14.33;13.67;;;;;24.25;64.01;99855.72;6321473;20;2475271;-51
2022/06/28 05:17:24;;;;;;;;;13.00;11.00;;;;;24.30;62.78;99858.78;6314416;20;3520037;-52
2022/06/28 05:19:54;;;;;;;;;14.33;13.67;;;;;24.45;62.16;99863.53;6318896;20;3541879;-52
2022/06/28 05:22:23;;;;;;;;;15.00;13.33;;;;;24.52;62.86;99873.63;6284810;20;3527293;-49
2022/06/28 05:24:52;;;;;;;;;11.00;11.00;;;;;24.65;61.10;99877.69;6286130;20;3526269;-49
2022/06/28 05:27:21;;;;;;;;;13.00;11.67;;;;;24.90;60.08;99886.59;6315733;20;2483595;-53
2022/06/28 05:29:50;;;;;;;;;12.67;11.67;;;;;25.26;60.13;99895.09;6318641;20;3538753;-50
2022/06/28 05:32:21;;;;;;;;;11.88;11.75;;;;;25.62;58.98;99887.06;6344616;20;3524230;-54
2022/06/28 05:34:50;;;;;;;;;12.00;12.00;;;;;25.93;57.62;99880.53;6314510;20;3513822;-50
2022/06/28 05:37:18;;;;;;;;;10.00;10.00;;;;;26.32;57.85;99873.03;6314716;20;3513757;-53
2022/06/28 05:39:47;;;;;;;;;10.67;10.00;;;;;26.39;54.84;99868.47;6325637;20;2788957;-56
2022/06/28 05:42:16;;;;;;;;;11.67;11.67;;;;;26.90;55.37;99880.31;6315741;20;3524216;-55
2022/06/28 05:44:45;;;;;;;;;11.67;9.67;;;;;26.92;54.88;99889.25;6286565;20;3502332;-52
2022/06/28 05:47:14;;;;;;;;;10.00;10.00;;;;;27.28;54.41;99882.84;6314496;20;3516004;-52
2022/06/28 05:49:42;;;;;;;;;11.00;11.00;;;;;27.46;53.01;99884.25;6316266;20;3513782;-50
2022/06/28 05:52:11;;;;;;;;;10.33;10.33;;;;;27.67;53.91;99886.13;6291810;20;2788792;-49
2022/06/28 05:54:40;;;;;;;;;10.67;10.67;;;;;28.05;51.94;99892.16;6318597;20;3515836;-51
2022/06/28 05:57:08;;;;;;;;;9.00;9.00;;;;;28.29;51.08;99906.53;6289203;20;2754543;-54
2022/06/28 05:59:37;;;;;;;;;12.00;12.00;;;;;28.13;51.71;99905.81;6315571;20;3535690;-50
2022/06/28 06:02:06;;;;;;;;;12.67;11.00;;;;;28.26;50.83;99918.84;6316164;20;3516940;-50
2022/06/28 06:04:35;;;;;;;;;13.00;11.33;;;;;27.88;52.62;99943.19;6316588;20;3535696;-49
2022/06/28 06:07:04;;;;;;;;;14.00;11.33;;;;;27.92;52.66;99970.22;6291884;20;2792959;-50
2022/06/28 06:09:32;;;;;;;;;10.00;10.00;;;;;27.38;53.62;99969.91;6316745;20;3513783;-53
2022/06/28 06:12:01;;;;;;;;;10.33;10.33;;;;;27.11;54.99;99991.63;6317870;20;3502698;-53
2022/06/28 06:14:30;;;;;;;;;12.33;11.00;;;;;27.07;54.10;99988.44;6313382;20;3513879;-55
2022/06/28 06:16:59;;;;;;;;;7.20;7.00;;;;;26.96;53.14;99996.34;6310011;20;2741939;-52
2022/06/28 06:19:28;;;;;;;;;12.33;11.00;;;;;26.82;53.19;99992.56;6285048;20;3508652;-51
2022/06/28 06:21:56;;;;;;;;;11.33;11.33;;;;;26.95;54.29;99973.44;6320514;20;2790986;-51
2022/06/28 06:24:25;;;;;;;;;12.00;11.00;;;;;26.83;53.76;99964.84;6319444;20;2788778;-51
2022/06/28 06:26:53;;;;;;;;;11.00;10.00;;;;;26.79;53.37;99949.72;6315844;20;3387725;-55
2022/06/28 06:29:24;;;;;;;;;8.20;6.00;;;;;26.97;53.01;99932.75;6341822;20;2737752;-52
2022/06/28 06:31:53;;;;;;;;;10.67;10.67;;;;;26.96;52.14;99927.44;6318154;20;2789835;-52
2022/06/28 06:34:21;;;;;;;;;9.00;9.00;;;;;27.15;53.01;99910.28;6323308;20;2762812;-55
2022/06/28 06:36:50;;;;;;;;;10.00;8.33;;;;;27.33;51.98;99885.88;6314685;20;2763919;-51
2022/06/28 06:39:19;;;;;;;;;9.67;9.67;;;;;27.16;53.02;99878.88;6314092;20;2768125;-53
2022/06/28 06:41:47;;;;;;;;;10.00;8.67;;;;;27.00;53.79;99857.09;6315622;20;2772162;-52
2022/06/28 06:44:16;;;;;;;;;11.67;9.67;;;;;26.91;54.79;99864.66;6316422;20;3506527;-53
2022/06/28 06:46:44;;;;;;;;;8.00;8.00;;;;;26.81;55.30;99864.97;6314993;20;2748233;-54
2022/06/28 06:49:14;;;;;;;;;8.67;8.67;;;;;26.85;54.17;99855.25;6321403;20;3457518;-54
2022/06/28 06:51:45;;;;;;;;;14.33;11.33;;;;;26.43;59.16;99829.34;6325190;20;2791921;-51
2022/06/28 06:54:14;;;;;;;;;10.33;10.33;;;;;25.92;63.81;99823.81;6318968;20;3503497;-54
2022/06/28 06:56:43;;;;;;;;;12.00;11.00;;;;;26.05;64.23;99825.91;6324512;20;2786701;-50
2022/06/28 06:59:13;;;;;;;;;10.00;9.00;;;;;25.91;65.28;99811.13;6321363;20;3496084;-50
2022/06/28 07:01:43;;;;;;;;;10.33;10.33;;;;;26.11;63.67;99813.28;6320907;20;2788793;-54
2022/06/28 07:04:15;;;;;;;;;12.33;11.33;;;;;26.11;66.29;99816.88;6321932;20;3517918;-52
2022/06/28 07:06:44;;;;;;;;;11.00;11.00;;;;;26.24;64.88;99805.19;6325129;20;2794016;-50
2022/06/28 07:09:13;;;;;;;;;10.33;10.33;;;;;26.63;63.46;99802.06;6322653;20;3516990;-51
2022/06/28 07:11:42;;;;;;;;;13.33;12.00;;;;;26.69;63.73;99800.41;6325140;20;3533546;-53
2022/06/28 07:14:10;;;;;;;;;16.00;15.50;;;;;26.79;66.25;99792.69;6322505;20;2820052;-53
2022/06/28 07:16:39;;;;;;;;;13.67;13.00;;;;;27.23;60.58;99786.09;6291955;20;3520080;-51
2022/06/28 07:19:08;;;;;;;;;8.67;8.67;;;;;27.89;62.17;99768.28;6323153;20;2748198;-53
2022/06/28 07:21:36;;;;;;;;;10.33;9.00;;;;;28.48;58.87;99775.97;6321354;20;2766909;-55
2022/06/28 07:24:07;;;;;;;;;13.00;10.00;;;;;28.66;58.53;99775.34;6319731;20;3513774;-55
2022/06/28 07:26:36;;;;;;;;;10.67;9.00;;;;;29.30;53.38;99777.53;6319403;20;3485675;-53
2022/06/28 07:29:05;;;;;;;;;12.00;10.33;;;;;29.98;52.61;99771.63;6320464;20;3506515;-54
2022/06/28 07:31:41;;;;;;;;;10.33;10.33;;;;;30.34;52.82;99756.38;6321497;20;3513828;-57
2022/06/28 07:34:12;;;;;;;;;9.00;9.00;;;;;30.74;50.15;99758.06;6313383;20;2754427;-56
2022/06/28 07:36:40;;;;;;;;;8.67;8.67;;;;;30.99;46.59;99752.53;6293367;20;2753375;-56
2022/06/28 07:39:09;;;;;;;;;8.67;8.67;;;;;30.80;47.49;99746.91;6329272;20;2751317;-57
2022/06/28 07:41:37;;;;;;;;;9.33;9.33;;;;;31.47;48.15;99749.16;6331284;20;2766989;-57
2022/06/28 07:44:06;;;;;;;;;6.00;6.00;;;;;32.02;46.81;99737.19;6322983;20;2740882;-58
2022/06/28 07:46:35;;;;;;;;;11.00;10.00;;;;;31.62;45.90;99738.50;6317566;20;2789911;-57
2022/06/28 07:49:04;;;;;;;;;9.00;9.00;;;;;31.87;46.69;99743.13;6328744;20;2762871;-57
2022/06/28 07:54:19;;;;;;;;;8.00;8.00;;;;;31.28;47.34;99729.66;6320837;20;2745137;-57
2022/06/28 07:56:48;;;;;;;;;10.33;9.00;;;;;32.04;46.15;99723.91;6326217;20;2776346;-58
2022/06/28 07:59:16;;;;;;;;;8.00;6.00;;;;;31.69;45.11;99733.72;6328974;20;2744000;-56
2022/06/28 08:01:46;;;;;;;;;7.67;6.67;;;;;31.13;46.63;99731.09;6323043;20;2734701;-57
2022/06/28 08:04:15;;;;;;;;;11.00;9.67;;;;;31.76;45.51;99724.47;6322379;20;2789222;-56
2022/06/28 08:06:43;;;;;;;;;6.67;6.67;;;;;31.56;44.28;99736.66;6322046;20;2749314;-56
2022/06/28 08:09:12;;;;;;;;;7.67;6.00;;;;;31.94;44.00;99732.84;6331231;20;2732561;-57
2022/06/28 08:11:40;;;;;;;;;8.00;8.00;;;;;32.58;42.37;99756.31;6320296;20;2754550;-57
2022/06/28 08:14:11;;;;;;;;;9.00;9.00;;;;;31.68;44.74;99772.84;6330769;20;2761779;-56
2022/06/28 08:16:40;;;;;;;;;10.00;10.00;;;;;32.79;42.43;99777.19;6324611;20;2783604;-57
2022/06/28 08:19:09;;;;;;;;;10.00;7.67;;;;;31.87;43.64;99790.34;6318500;20;2759761;-55
2022/06/28 08:21:38;;;;;;;;;9.00;9.00;;;;;33.21;40.45;99795.81;6325108;20;2752368;-56
2022/06/28 08:24:07;;;;;;;;;10.00;8.00;;;;;32.92;39.32;99791.97;6326906;20;2760665;-54
2022/06/28 08:26:42;;;;;;;;;8.67;7.33;;;;;33.05;40.18;99793.72;6322005;20;2739859;-58
2022/06/28 08:29:14;;;;;;;;;7.67;6.33;;;;;32.30;40.23;99803.31;6321259;20;2748603;-57
2022/06/28 08:31:43;;;;;;;;;6.67;6.67;;;;;31.82;41.37;99802.13;6321788;20;2751350;-57
2022/06/28 08:34:12;;;;;;;;;4.67;4.00;;;;;31.96;41.54;99808.41;6321592;20;2748172;-57
2022/06/28 08:36:41;;;;;;;;;7.33;6.67;;;;;31.58;41.77;99819.72;6321389;20;2744050;-55
2022/06/28 08:39:09;;;;;;;;;5.00;5.00;;;;;31.26;41.46;99823.38;6329847;20;2742982;-55
2022/06/28 08:41:42;;;;;;;;;8.33;6.00;;;;;31.54;41.55;99818.44;6321628;20;2742012;-55
2022/06/28 08:44:13;;;;;;;;;6.67;6.67;;;;;31.85;41.86;99820.28;6327733;20;2744061;-56
2022/06/28 08:46:41;;;;;;;;;8.00;6.00;;;;;32.03;42.74;99825.88;6318379;20;2756531;-56
2022/06/28 08:49:13;;;;;;;;;7.33;6.00;;;;;31.81;41.69;99836.56;6320800;20;2744005;-56
2022/06/28 08:51:42;;;;;;;;;8.00;6.00;;;;;31.86;41.35;99841.41;6320924;20;2754500;-56
2022/06/28 08:54:13;;;;;;;;;6.67;6.00;;;;;31.79;41.96;99837.88;6327402;20;2742994;-55
2022/06/28 08:56:41;;;;;;;;;10.00;8.67;;;;;31.97;41.45;99832.34;6313479;20;3482538;-54
2022/06/28 08:59:10;;;;;;;;;7.67;7.67;;;;;32.22;40.52;99840.59;6318668;20;2735692;-56
2022/06/28 09:01:39;;;;;;;;;6.00;4.00;;;;;32.63;37.05;99840.97;6319079;20;2748242;-54
2022/06/28 09:04:11;;;;;;;;;2.00;0.00;;;;;32.49;35.52;99852.28;6343242;20;2739875;-55
2022/06/28 09:06:41;;;;;;;;;2.60;2.60;;;;;32.35;36.06;99854.31;6311191;20;2746092;-52
2022/06/28 09:09:10;;;;;;;;;5.00;3.67;;;;;32.15;35.79;99850.97;6286672;20;2756570;-53
2022/06/28 09:11:43;;;;;;;;;3.00;3.00;;;;;32.89;34.93;99848.94;6321285;20;2754439;-57
2022/06/28 09:14:35;;;;;;;;;3.25;0.75;;;;;32.73;35.15;99846.78;6344297;20;1910763;-56
2022/06/28 09:17:28;;;;;;;;;5.67;5.67;;;;;33.21;34.88;99843.13;6320031;20;2734626;-56
2022/06/28 09:20:04;;;;;;;;;4.00;1.33;;;;;33.45;33.93;99846.78;6323617;20;2736726;-55
2022/06/28 09:22:38;;;;;;;;;3.40;2.00;;;;;33.45;32.85;99844.81;6343116;20;2755449;-54
2022/06/28 09:25:30;;;;;;;;;3.33;3.33;;;;;34.37;32.73;99848.94;6302685;20;2747899;-56
2022/06/28 09:28:03;;;;;;;;;3.00;3.00;;;;;33.76;33.35;99845.59;6318563;20;2745208;-55
2022/06/28 09:30:33;;;;;;;;;0.40;0.40;;;;;34.53;30.73;99852.88;6343018;20;2730475;-57
2022/06/28 09:33:03;;;;;;;;;2.33;2.33;;;;;35.02;32.58;99850.50;6289214;20;2744017;-60
2022/06/28 09:35:32;;;;;;;;;2.67;1.33;;;;;35.14;30.31;99851.31;6320467;20;2749314;-56
2022/06/28 09:38:00;;;;;;;;;1.00;1.00;;;;;34.25;30.56;99851.72;6321568;20;2741927;-58
2022/06/28 09:40:31;;;;;;;;;2.00;1.40;;;;;33.94;30.37;99853.00;6340962;20;2756585;-58
2022/06/28 09:43:16;;;;;;;;;3.80;1.00;;;;;33.69;31.62;99856.00;6313695;20;2750248;-57
2022/06/28 09:45:47;;;;;;;;;4.00;3.00;;;;;33.19;32.46;99850.84;6290071;20;2756529;-57
2022/06/28 09:48:19;;;;;;;;;3.00;1.33;;;;;33.42;32.79;99853.66;6319882;20;2739841;-55
2022/06/28 09:50:49;;;;;;;;;5.00;3.00;;;;;33.72;32.79;99855.53;6317015;20;2756495;-57
2022/06/28 09:53:20;;;;;;;;;3.00;3.00;;;;;32.75;34.06;99858.53;6315978;20;2745036;-54
2022/06/28 09:55:51;;;;;;;;;6.25;5.00;;;;;32.75;35.11;99852.97;6343914;20;2627410;-56
2022/06/28 09:58:23;;;;;;;;;4.00;4.00;;;;;33.01;34.90;99858.16;6316021;20;2745041;-55
2022/06/28 10:00:53;;;;;;;;;5.00;2.80;;;;;33.10;35.09;99858.69;6341920;20;2748357;-54
2022/06/28 10:03:22;;;;;;;;;3.00;3.00;;;;;33.31;33.79;99857.28;6286500;20;2749266;-56
2022/06/28 10:05:51;;;;;;;;;3.00;3.00;;;;;32.98;33.81;99855.84;6316482;20;2752366;-54
2022/06/28 10:08:21;;;;;;;;;3.00;3.00;;;;;32.99;34.52;99865.91;6340673;20;2744001;-56
2022/06/28 10:10:51;;;;;;;;;5.00;3.00;;;;;32.68;35.11;99857.81;6286785;20;2750313;-55
2022/06/28 10:16:58;;;;;;;;;3.00;3.00;;;;;33.18;34.22;99849.16;6318831;20;2746257;-55
2022/06/28 10:19:27;;;;;;;;;3.33;2.67;;;;;33.74;33.01;99853.34;6319055;20;2748573;-53
2022/06/28 10:21:55;;;;;;;;;5.00;3.00;;;;;34.66;32.45;99855.41;6314704;20;2752336;-57
2022/06/28 10:25:00;;;;;;;;;5.00;2.00;;;;;35.71;31.68;99852.28;6317588;20;2729408;-58
2022/06/28 10:27:30;;;;;;;;;2.33;2.33;;;;;34.79;31.51;99856.22;6320555;20;2756532;-60
2022/06/28 10:29:59;;;;;;;;;3.00;3.00;;;;;34.40;32.45;99850.38;6318559;20;2743017;-60
2022/06/28 10:33:06;;;;;;;;;3.00;3.00;;;;;33.53;33.12;99840.00;6318168;20;2756496;-59
2022/06/28 10:35:35;;;;;;;;;7.33;3.00;;;;;33.06;34.93;99839.94;6319037;20;2740966;-59
2022/06/28 10:38:09;;;;;;;;;4.33;4.33;;;;;33.50;35.15;99834.91;6320228;20;2732545;-59
2022/06/28 10:40:49;;;;;;;;;5.40;4.00;;;;;32.98;36.73;99836.38;6341048;20;2738833;-59
2022/06/28 10:43:26;;;;;;;;;7.00;4.00;;;;;32.99;35.84;99838.06;6288228;20;2734671;-58
2022/06/28 10:46:04;;;;;;;;;7.00;4.00;;;;;32.40;36.74;99836.94;6324818;20;2736834;-58
2022/06/28 10:48:50;;;;;;;;;6.00;4.00;;;;;32.87;37.11;99848.31;6318971;20;2739834;-58
2022/06/28 10:51:20;;;;;;;;;5.00;5.00;;;;;32.76;38.13;99846.34;6309047;20;2748296;-58
2022/06/28 10:54:11;;;;;;;;;7.00;5.00;;;;;32.85;38.24;99849.63;6316662;20;2729524;-58
2022/06/28 10:56:47;;;;;;;;;10.00;7.00;;;;;32.37;38.34;99854.09;6311750;20;2762835;-58
2022/06/28 10:59:18;;;;;;;;;5.00;5.00;;;;;32.31;37.99;99849.47;6313590;20;2737886;-60
2022/06/28 11:01:47;;;;;;;;;6.33;6.33;;;;;32.49;38.13;99846.72;6311417;20;2736751;-56
2022/06/28 11:04:24;;;;;;;;;6.00;6.00;;;;;32.72;37.15;99839.53;6318232;20;2734638;-58
2022/06/28 11:07:23;;;;;;;;;7.00;7.00;;;;;32.66;38.32;99838.56;6313660;20;2748163;-58
2022/06/28 11:10:07;;;;;;;;;7.00;7.00;;;;;32.65;38.18;99836.00;6326309;20;2742011;-58
2022/06/28 11:12:41;;;;;;;;;6.67;6.67;;;;;32.77;39.10;99836.91;6320452;20;2748234;-58
2022/06/28 11:15:39;;;;;;;;;6.00;6.00;;;;;32.67;38.79;99837.47;6316017;20;2750277;-55
2022/06/28 11:18:20;;;;;;;;;7.00;6.67;;;;;33.10;38.93;99835.56;6325510;20;2744048;-58
2022/06/28 11:20:48;;;;;;;;;7.00;6.00;;;;;33.40;37.70;99825.22;6317132;20;2733639;-58
2022/06/28 11:23:32;;;;;;;;;5.67;5.67;;;;;33.70;37.11;99838.19;6314881;20;2744042;-56
2022/06/28 11:29:03;;;;;;;;;4.33;4.33;;;;;34.25;36.35;99832.22;6312319;20;2732651;-58
2022/06/28 11:31:42;;;;;;;;;4.00;4.00;;;;;34.01;35.16;99827.75;6313063;20;2746077;-58
2022/06/28 11:34:11;;;;;;;;;7.67;5.00;;;;;33.70;36.09;99827.06;6322629;20;2738893;-57
2022/06/28 11:36:45;;;;;;;;;5.00;5.00;;;;;33.97;35.42;99818.22;6321550;20;2746534;-58
2022/06/28 11:39:23;;;;;;;;;4.00;4.00;;;;;33.87;35.80;99819.66;6321144;20;2741305;-58